sensor_id;sensor_type;location;lat;lon;timestamp;pressure;altitude;pressure_sealevel;temperature;humidity
76866;BME280;66647;52.124;5.416;2023-04-19T00:02:15;102941.63;;;8.59;73.59
76866;BME280;66647;52.124;5.416;2023-04-19T00:04:44;102947.66;;;8.61;73.50
76866;BME280;66647;52.124;5.416;2023-04-19T00:07:12;102940.81;;;8.59;74.21
76866;BME280;66647;52.124;5.416;2023-04-19T00:09:39;102939.16;;;8.58;74.20
76866;BME280;66647;52.124;5.416;2023-04-19T00:12:05;102939.41;;;8.56;74.24
76866;BME280;66647;52.124;5.416;2023-04-19T00:14:32;102939.69;;;8.55;74.04
76866;BME280;66647;52.124;5.416;2023-04-19T00:16:58;102938.28;;;8.52;74.24
76866;BME280;66647;52.124;5.416;2023-04-19T00:19:28;102938.81;;;8.49;73.94
76866;BME280;66647;52.124;5.416;2023-04-19T00:21:54;102937.16;;;8.48;74.22
76866;BME280;66647;52.124;5.416;2023-04-19T00:24:21;102937.41;;;8.47;74.61
76866;BME280;66647;52.124;5.416;2023-04-19T00:26:47;102940.69;;;8.44;74.67
76866;BME280;66647;52.124;5.416;2023-04-19T00:29:15;102933.00;;;8.40;74.87
76866;BME280;66647;52.124;5.416;2023-04-19T00:31:42;102942.28;;;8.39;74.26
76866;BME280;66647;52.124;5.416;2023-04-19T00:34:08;102941.16;;;8.35;75.12
76866;BME280;66647;52.124;5.416;2023-04-19T00:36:35;102935.88;;;8.29;75.40
76866;BME280;66647;52.124;5.416;2023-04-19T00:39:02;102938.28;;;8.25;75.59
76866;BME280;66647;52.124;5.416;2023-04-19T00:41:29;102931.13;;;8.19;75.35
76866;BME280;66647;52.124;5.416;2023-04-19T00:43:59;102926.44;;;8.15;76.10
76866;BME280;66647;52.124;5.416;2023-04-19T00:46:26;102932.44;;;8.12;75.78
76866;BME280;66647;52.124;5.416;2023-04-19T00:48:52;102920.63;;;8.06;75.22
76866;BME280;66647;52.124;5.416;2023-04-19T00:51:19;102923.56;;;7.99;76.26
76866;BME280;66647;52.124;5.416;2023-04-19T00:53:46;102920.25;;;7.97;76.55
76866;BME280;66647;52.124;5.416;2023-04-19T00:56:13;102921.59;;;7.95;76.46
76866;BME280;66647;52.124;5.416;2023-04-19T00:58:41;102918.28;;;7.93;75.76
76866;BME280;66647;52.124;5.416;2023-04-19T01:01:08;102916.31;;;7.88;76.18
76866;BME280;66647;52.124;5.416;2023-04-19T01:03:34;102917.91;;;7.84;76.97
76866;BME280;66647;52.124;5.416;2023-04-19T01:06:02;102905.84;;;7.80;76.51
76866;BME280;66647;52.124;5.416;2023-04-19T01:08:28;102911.06;;;7.82;77.05
76866;BME280;66647;52.124;5.416;2023-04-19T01:10:55;102912.97;;;7.81;76.72
76866;BME280;66647;52.124;5.416;2023-04-19T01:13:21;102909.16;;;7.82;77.22
76866;BME280;66647;52.124;5.416;2023-04-19T01:15:48;102906.16;;;7.84;77.23
76866;BME280;66647;52.124;5.416;2023-04-19T01:18:14;102907.81;;;7.85;77.45
76866;BME280;66647;52.124;5.416;2023-04-19T01:20:41;102912.44;;;7.84;77.85
76866;BME280;66647;52.124;5.416;2023-04-19T01:23:08;102916.00;;;7.85;77.11
76866;BME280;66647;52.124;5.416;2023-04-19T01:25:37;102910.53;;;7.85;77.27
76866;BME280;66647;52.124;5.416;2023-04-19T01:28:04;102906.72;;;7.86;77.41
76866;BME280;66647;52.124;5.416;2023-04-19T01:30:31;102908.13;;;7.88;77.32
76866;BME280;66647;52.124;5.416;2023-04-19T01:32:59;102903.50;;;7.89;78.19
76866;BME280;66647;52.124;5.416;2023-04-19T01:35:27;102903.75;;;7.87;77.93
76866;BME280;66647;52.124;5.416;2023-04-19T01:37:55;102905.97;;;7.90;77.92
76866;BME280;66647;52.124;5.416;2023-04-19T01:40:23;102905.97;;;7.90;78.12
76866;BME280;66647;52.124;5.416;2023-04-19T01:42:51;102910.91;;;7.93;78.69
76866;BME280;66647;52.124;5.416;2023-04-19T01:45:18;102904.94;;;7.96;77.79
76866;BME280;66647;52.124;5.416;2023-04-19T01:47:49;102903.59;;;7.99;78.42
76866;BME280;66647;52.124;5.416;2023-04-19T01:50:15;102898.47;;;8.02;78.03
76866;BME280;66647;52.124;5.416;2023-04-19T01:52:42;102903.91;;;8.02;78.58
76866;BME280;66647;52.124;5.416;2023-04-19T01:55:09;102903.91;;;8.02;78.19
76866;BME280;66647;52.124;5.416;2023-04-19T01:57:35;102905.56;;;8.03;78.11
76866;BME280;66647;52.124;5.416;2023-04-19T02:00:02;102902.31;;;8.06;78.81
76866;BME280;66647;52.124;5.416;2023-04-19T02:02:39;102907.53;;;8.08;78.93
76866;BME280;66647;52.124;5.416;2023-04-19T02:05:07;102905.63;;;8.08;78.77
76866;BME280;66647;52.124;5.416;2023-04-19T02:07:34;102910.00;;;8.09;77.77
76866;BME280;66647;52.124;5.416;2023-04-19T02:10:00;102911.66;;;8.11;78.47
76866;BME280;66647;52.124;5.416;2023-04-19T02:12:28;102905.09;;;8.12;79.21
76866;BME280;66647;52.124;5.416;2023-04-19T02:14:56;102909.47;;;8.13;78.46
76866;BME280;66647;52.124;5.416;2023-04-19T02:17:30;102898.53;;;8.13;78.98
76866;BME280;66647;52.124;5.416;2023-04-19T02:19:59;102903.47;;;8.16;79.11
76866;BME280;66647;52.124;5.416;2023-04-19T02:22:25;102905.97;;;8.17;78.85
76866;BME280;66647;52.124;5.416;2023-04-19T02:24:52;102901.56;;;8.16;79.38
76866;BME280;66647;52.124;5.416;2023-04-19T02:27:25;102897.75;;;8.17;79.42
76866;BME280;66647;52.124;5.416;2023-04-19T02:29:53;102906.25;;;8.21;78.49
76866;BME280;66647;52.124;5.416;2023-04-19T02:32:19;102906.25;;;8.21;79.02
76866;BME280;66647;52.124;5.416;2023-04-19T02:34:46;102906.56;;;8.24;79.26
76866;BME280;66647;52.124;5.416;2023-04-19T02:37:13;102903.59;;;8.26;79.13
76866;BME280;66647;52.124;5.416;2023-04-19T02:39:39;102910.69;;;8.27;79.41
76866;BME280;66647;52.124;5.416;2023-04-19T02:42:07;102910.69;;;8.27;79.40
76866;BME280;66647;52.124;5.416;2023-04-19T02:44:34;102915.09;;;8.28;79.08
76866;BME280;66647;52.124;5.416;2023-04-19T02:47:00;102906.88;;;8.28;78.83
76866;BME280;66647;52.124;5.416;2023-04-19T02:49:29;102919.47;;;8.29;79.49
76866;BME280;66647;52.124;5.416;2023-04-19T02:51:59;102914.81;;;8.29;78.77
76866;BME280;66647;52.124;5.416;2023-04-19T02:54:26;102905.53;;;8.30;79.13
76866;BME280;66647;52.124;5.416;2023-04-19T02:56:53;102907.19;;;8.31;78.79
76866;BME280;66647;52.124;5.416;2023-04-19T02:59:19;102906.97;;;8.33;79.49
76866;BME280;66647;52.124;5.416;2023-04-19T03:01:46;102903.41;;;8.32;78.98
76866;BME280;66647;52.124;5.416;2023-04-19T03:04:12;102906.97;;;8.33;78.46
76866;BME280;66647;52.124;5.416;2023-04-19T03:06:40;102903.97;;;8.34;78.84
76866;BME280;66647;52.124;5.416;2023-04-19T03:09:07;102895.50;;;8.36;79.19
76866;BME280;66647;52.124;5.416;2023-04-19T03:11:34;102897.16;;;8.37;78.89
76866;BME280;66647;52.124;5.416;2023-04-19T03:14:02;102899.91;;;8.37;78.58
76866;BME280;66647;52.124;5.416;2023-04-19T03:16:28;102907.00;;;8.38;79.21
76866;BME280;66647;52.124;5.416;2023-04-19T03:18:55;102903.19;;;8.39;78.65
76866;BME280;66647;52.124;5.416;2023-04-19T03:21:27;102901.03;;;8.41;78.68
76866;BME280;66647;52.124;5.416;2023-04-19T03:23:54;102894.75;;;8.40;78.87
76866;BME280;66647;52.124;5.416;2023-04-19T03:26:23;102894.75;;;8.40;79.03
76866;BME280;66647;52.124;5.416;2023-04-19T03:28:52;102891.75;;;8.42;78.68
76866;BME280;66647;52.124;5.416;2023-04-19T03:31:31;102897.22;;;8.42;78.78
76866;BME280;66647;52.124;5.416;2023-04-19T03:33:58;102892.56;;;8.43;78.32
76866;BME280;66647;52.124;5.416;2023-04-19T03:36:33;102888.75;;;8.44;78.52
76866;BME280;66647;52.124;5.416;2023-04-19T03:39:02;102895.03;;;8.44;79.12
76866;BME280;66647;52.124;5.416;2023-04-19T03:41:28;102886.03;;;8.44;78.13
76866;BME280;66647;52.124;5.416;2023-04-19T03:44:03;102878.63;;;8.44;78.59
76866;BME280;66647;52.124;5.416;2023-04-19T03:46:29;102887.38;;;8.46;79.03
76866;BME280;66647;52.124;5.416;2023-04-19T03:48:58;102891.19;;;8.45;78.59
76866;BME280;66647;52.124;5.416;2023-04-19T03:51:25;102878.91;;;8.43;78.67
76866;BME280;66647;52.124;5.416;2023-04-19T03:53:52;102888.69;;;8.38;78.69
76866;BME280;66647;52.124;5.416;2023-04-19T03:56:19;102887.84;;;8.33;79.27
76866;BME280;66647;52.124;5.416;2023-04-19T03:58:46;102891.56;;;8.27;78.59
76866;BME280;66647;52.124;5.416;2023-04-19T04:01:19;102891.81;;;8.25;79.02
76866;BME280;66647;52.124;5.416;2023-04-19T04:03:46;102882.50;;;8.21;78.59
76866;BME280;66647;52.124;5.416;2023-04-19T04:06:13;102883.28;;;8.17;78.42
76866;BME280;66647;52.124;5.416;2023-04-19T04:08:40;102885.44;;;8.15;78.39
76866;BME280;66647;52.124;5.416;2023-04-19T04:11:07;102891.97;;;8.14;79.10
76866;BME280;66647;52.124;5.416;2023-04-19T04:13:33;102896.91;;;8.12;79.00
76866;BME280;66647;52.124;5.416;2023-04-19T04:16:06;102890.88;;;8.09;78.37
76866;BME280;66647;52.124;5.416;2023-04-19T04:18:33;102884.03;;;8.07;78.81
76866;BME280;66647;52.124;5.416;2023-04-19T04:21:03;102893.81;;;8.03;78.99
76866;BME280;66647;52.124;5.416;2023-04-19T04:23:31;102884.22;;;8.00;78.36
76866;BME280;66647;52.124;5.416;2023-04-19T04:26:00;102897.06;;;8.00;78.84
76866;BME280;66647;52.124;5.416;2023-04-19T04:28:38;102893.44;;;7.94;79.01
76866;BME280;66647;52.124;5.416;2023-04-19T04:31:05;102901.31;;;7.91;78.61
76866;BME280;66647;52.124;5.416;2023-04-19T04:33:33;102902.09;;;7.86;78.77
76866;BME280;66647;52.124;5.416;2023-04-19T04:36:00;102898.53;;;7.86;78.23
76866;BME280;66647;52.124;5.416;2023-04-19T04:38:30;102894.97;;;7.85;78.94
76866;BME280;66647;52.124;5.416;2023-04-19T04:40:57;102894.91;;;7.80;78.09
76866;BME280;66647;52.124;5.416;2023-04-19T04:43:25;102899.84;;;7.78;78.12
76866;BME280;66647;52.124;5.416;2023-04-19T04:45:55;102897.63;;;7.75;78.08
76866;BME280;66647;52.124;5.416;2023-04-19T04:48:26;102898.72;;;7.74;78.13
76866;BME280;66647;52.124;5.416;2023-04-19T04:50:56;102893.19;;;7.69;78.27
76866;BME280;66647;52.124;5.416;2023-04-19T04:53:26;102895.09;;;7.68;78.76
76866;BME280;66647;52.124;5.416;2023-04-19T04:55:53;102889.31;;;7.65;78.72
76866;BME280;66647;52.124;5.416;2023-04-19T04:58:20;102895.84;;;7.64;78.14
76866;BME280;66647;52.124;5.416;2023-04-19T05:00:57;102894.19;;;7.63;78.53
76866;BME280;66647;52.124;5.416;2023-04-19T05:03:25;102893.88;;;7.59;78.21
76866;BME280;66647;52.124;5.416;2023-04-19T05:05:56;102902.31;;;7.58;78.86
76866;BME280;66647;52.124;5.416;2023-04-19T05:08:24;102909.69;;;7.57;78.20
76866;BME280;66647;52.124;5.416;2023-04-19T05:10:56;102899.84;;;7.56;78.44
76866;BME280;66647;52.124;5.416;2023-04-19T05:13:25;102901.50;;;7.57;78.59
76866;BME280;66647;52.124;5.416;2023-04-19T05:15:53;102897.94;;;7.57;78.62
76866;BME280;66647;52.124;5.416;2023-04-19T05:18:20;102904.50;;;7.56;77.64
76866;BME280;66647;52.124;5.416;2023-04-19T05:20:47;102902.84;;;7.55;78.05
76866;BME280;66647;52.124;5.416;2023-04-19T05:23:19;102910.19;;;7.54;77.86
76866;BME280;66647;52.124;5.416;2023-04-19T05:25:46;102906.38;;;7.55;76.95
76866;BME280;66647;52.124;5.416;2023-04-19T05:28:13;102907.22;;;7.56;77.29
76866;BME280;66647;52.124;5.416;2023-04-19T05:30:52;102909.94;;;7.56;76.56
76866;BME280;66647;52.124;5.416;2023-04-19T05:33:21;102906.13;;;7.57;76.73
76866;BME280;66647;52.124;5.416;2023-04-19T05:35:50;102902.31;;;7.58;75.97
76866;BME280;66647;52.124;5.416;2023-04-19T05:38:16;102906.44;;;7.60;75.29
76866;BME280;66647;52.124;5.416;2023-04-19T05:40:44;102901.06;;;7.65;74.97
76866;BME280;66647;52.124;5.416;2023-04-19T05:43:17;102907.97;;;7.73;73.89
76866;BME280;66647;52.124;5.416;2023-04-19T05:45:44;102913.59;;;7.88;74.03
76866;BME280;66647;52.124;5.416;2023-04-19T05:48:12;102915.94;;;8.01;73.31
76866;BME280;66647;52.124;5.416;2023-04-19T05:50:54;102906.97;;;8.06;71.91
76866;BME280;66647;52.124;5.416;2023-04-19T05:53:52;102911.09;;;8.14;71.45
76866;BME280;66647;52.124;5.416;2023-04-19T05:56:23;102913.94;;;8.24;70.25
76866;BME280;66647;52.124;5.416;2023-04-19T05:58:51;102913.47;;;8.32;69.34
76866;BME280;66647;52.124;5.416;2023-04-19T06:01:18;102904.72;;;8.30;68.81
76866;BME280;66647;52.124;5.416;2023-04-19T06:03:45;102909.19;;;8.36;69.47
76866;BME280;66647;52.124;5.416;2023-04-19T06:06:12;102913.06;;;8.40;68.79
76866;BME280;66647;52.124;5.416;2023-04-19T06:08:39;102909.78;;;8.43;67.45
76866;BME280;66647;52.124;5.416;2023-04-19T06:11:05;102902.75;;;8.52;66.26
76866;BME280;66647;52.124;5.416;2023-04-19T06:13:48;102905.59;;;8.67;65.24
76866;BME280;66647;52.124;5.416;2023-04-19T06:16:16;102914.16;;;8.76;64.96
76866;BME280;66647;52.124;5.416;2023-04-19T06:18:43;102911.22;;;8.88;65.75
76866;BME280;66647;52.124;5.416;2023-04-19T06:21:09;102913.19;;;8.97;62.83
76866;BME280;66647;52.124;5.416;2023-04-19T06:23:36;102906.47;;;9.20;61.86
76866;BME280;66647;52.124;5.416;2023-04-19T06:26:02;102913.16;;;9.44;61.82
76866;BME280;66647;52.124;5.416;2023-04-19T06:28:29;102913.25;;;9.70;59.19
76866;BME280;66647;52.124;5.416;2023-04-19T06:30:55;102912.25;;;10.17;58.57
76866;BME280;66647;52.124;5.416;2023-04-19T06:33:22;102918.31;;;10.95;55.87
76866;BME280;66647;52.124;5.416;2023-04-19T06:35:48;102913.97;;;12.13;51.49
76866;BME280;66647;52.124;5.416;2023-04-19T06:38:16;102909.00;;;13.06;48.98
76866;BME280;66647;52.124;5.416;2023-04-19T06:40:44;102904.59;;;13.05;47.73
76866;BME280;66647;52.124;5.416;2023-04-19T06:43:10;102913.50;;;13.26;46.11
76866;BME280;66647;52.124;5.416;2023-04-19T06:45:40;102904.28;;;13.36;45.07
76866;BME280;66647;52.124;5.416;2023-04-19T06:48:07;102913.06;;;13.62;44.63
76866;BME280;66647;52.124;5.416;2023-04-19T06:50:34;102908.84;;;12.98;43.38
76866;BME280;66647;52.124;5.416;2023-04-19T06:53:00;102911.69;;;12.25;46.03
76866;BME280;66647;52.124;5.416;2023-04-19T06:55:30;102918.81;;;11.87;47.15
76866;BME280;66647;52.124;5.416;2023-04-19T06:57:56;102919.94;;;11.70;47.87
76866;BME280;66647;52.124;5.416;2023-04-19T07:00:23;102912.84;;;11.64;47.23
76866;BME280;66647;52.124;5.416;2023-04-19T07:02:49;102924.03;;;11.83;47.52
76866;BME280;66647;52.124;5.416;2023-04-19T07:05:17;102924.53;;;11.95;46.57
76866;BME280;66647;52.124;5.416;2023-04-19T07:07:45;102909.88;;;12.05;46.73
76866;BME280;66647;52.124;5.416;2023-04-19T07:10:11;102919.63;;;11.87;46.41
76866;BME280;66647;52.124;5.416;2023-04-19T07:12:38;102920.50;;;11.77;46.08
76866;BME280;66647;52.124;5.416;2023-04-19T07:15:05;102918.84;;;11.76;46.44
76866;BME280;66647;52.124;5.416;2023-04-19T07:17:33;102911.88;;;11.99;44.92
76866;BME280;66647;52.124;5.416;2023-04-19T07:20:01;102910.66;;;12.78;44.78
76866;BME280;66647;52.124;5.416;2023-04-19T07:22:29;102906.16;;;13.83;42.97
76866;BME280;66647;52.124;5.416;2023-04-19T07:24:55;102907.78;;;14.22;39.17
76866;BME280;66647;52.124;5.416;2023-04-19T07:27:21;102907.78;;;14.22;39.59
76866;BME280;66647;52.124;5.416;2023-04-19T07:29:48;102907.22;;;14.57;37.86
76866;BME280;66647;52.124;5.416;2023-04-19T07:32:14;102909.28;;;14.65;38.31
76866;BME280;66647;52.124;5.416;2023-04-19T07:34:41;102911.00;;;14.94;36.57
76866;BME280;66647;52.124;5.416;2023-04-19T07:37:08;102916.88;;;14.73;36.51
76866;BME280;66647;52.124;5.416;2023-04-19T07:39:35;102912.00;;;14.52;37.03
76866;BME280;66647;52.124;5.416;2023-04-19T07:42:02;102901.06;;;14.93;36.66
76866;BME280;66647;52.124;5.416;2023-04-19T07:44:28;102906.78;;;15.10;36.00
76866;BME280;66647;52.124;5.416;2023-04-19T07:46:55;102908.34;;;15.43;36.59
76866;BME280;66647;52.124;5.416;2023-04-19T07:49:22;102909.28;;;16.02;36.40
76866;BME280;66647;52.124;5.416;2023-04-19T07:51:48;102908.78;;;16.45;33.73
76866;BME280;66647;52.124;5.416;2023-04-19T07:54:16;102911.38;;;16.19;35.75
76866;BME280;66647;52.124;5.416;2023-04-19T07:56:45;102914.19;;;16.28;33.87
76866;BME280;66647;52.124;5.416;2023-04-19T07:59:11;102909.66;;;16.32;34.68
76866;BME280;66647;52.124;5.416;2023-04-19T08:01:38;102914.97;;;16.42;33.73
76866;BME280;66647;52.124;5.416;2023-04-19T08:04:05;102910.56;;;16.41;32.98
76866;BME280;66647;52.124;5.416;2023-04-19T08:06:32;102918.78;;;16.32;33.51
76866;BME280;66647;52.124;5.416;2023-04-19T08:08:58;102919.44;;;16.52;33.77
76866;BME280;66647;52.124;5.416;2023-04-19T08:11:25;102918.81;;;16.77;32.99
76866;BME280;66647;52.124;5.416;2023-04-19T08:13:52;102913.53;;;16.67;33.29
76866;BME280;66647;52.124;5.416;2023-04-19T08:16:31;102922.03;;;17.01;31.41
76866;BME280;66647;52.124;5.416;2023-04-19T08:19:18;102909.28;;;17.00;31.05
76866;BME280;66647;52.124;5.416;2023-04-19T08:21:45;102907.22;;;16.75;31.33
76866;BME280;66647;52.124;5.416;2023-04-19T08:24:11;102917.06;;;16.90;32.47
76866;BME280;66647;52.124;5.416;2023-04-19T08:26:38;102911.34;;;17.26;32.67
76866;BME280;66647;52.124;5.416;2023-04-19T08:29:04;102903.03;;;17.26;30.27
76866;BME280;66647;52.124;5.416;2023-04-19T08:31:31;102905.66;;;17.31;30.47
76866;BME280;66647;52.124;5.416;2023-04-19T08:33:57;102913.88;;;17.44;30.21
76866;BME280;66647;52.124;5.416;2023-04-19T08:36:25;102910.97;;;17.50;30.70
76866;BME280;66647;52.124;5.416;2023-04-19T08:39:05;102906.78;;;17.69;30.21
76866;BME280;66647;52.124;5.416;2023-04-19T08:41:43;102891.13;;;17.82;29.52
76866;BME280;66647;52.124;5.416;2023-04-19T08:44:16;102893.25;;;17.94;29.81
76866;BME280;66647;52.124;5.416;2023-04-19T08:47:01;102893.75;;;18.04;30.39
76866;BME280;66647;52.124;5.416;2023-04-19T08:49:27;102891.78;;;18.13;29.50
76866;BME280;66647;52.124;5.416;2023-04-19T08:51:56;102889.34;;;17.86;30.25
76866;BME280;66647;52.124;5.416;2023-04-19T08:54:24;102891.31;;;17.86;29.60
76866;BME280;66647;52.124;5.416;2023-04-19T08:56:52;102908.91;;;17.72;29.88
76866;BME280;66647;52.124;5.416;2023-04-19T08:59:19;102891.78;;;17.96;30.26
76866;BME280;66647;52.124;5.416;2023-04-19T09:01:46;102890.22;;;18.59;29.04
76866;BME280;66647;52.124;5.416;2023-04-19T09:04:15;102894.69;;;18.52;29.78
76866;BME280;66647;52.124;5.416;2023-04-19T09:07:02;102890.59;;;18.49;28.59
76866;BME280;66647;52.124;5.416;2023-04-19T09:09:29;102893.72;;;18.22;27.81
76866;BME280;66647;52.124;5.416;2023-04-19T09:11:58;102891.22;;;17.51;27.97
76866;BME280;66647;52.124;5.416;2023-04-19T09:14:26;102892.81;;;17.43;27.78
76866;BME280;66647;52.124;5.416;2023-04-19T09:17:10;102896.19;;;17.80;28.20
76866;BME280;66647;52.124;5.416;2023-04-19T09:19:48;102889.81;;;17.88;28.00
76866;BME280;66647;52.124;5.416;2023-04-19T09:22:15;102893.56;;;17.92;28.15
76866;BME280;66647;52.124;5.416;2023-04-19T09:24:42;102884.75;;;17.82;27.84
76866;BME280;66647;52.124;5.416;2023-04-19T09:27:18;102886.72;;;17.81;27.30
76866;BME280;66647;52.124;5.416;2023-04-19T09:30:00;102888.19;;;17.96;28.54
76866;BME280;66647;52.124;5.416;2023-04-19T09:32:46;102883.06;;;18.67;29.89
76866;BME280;66647;52.124;5.416;2023-04-19T09:35:13;102875.47;;;18.85;27.81
76866;BME280;66647;52.124;5.416;2023-04-19T09:37:40;102881.75;;;18.73;27.10
76866;BME280;66647;52.124;5.416;2023-04-19T09:40:27;102881.34;;;18.92;28.01
76866;BME280;66647;52.124;5.416;2023-04-19T09:42:54;102874.63;;;18.93;27.39
76866;BME280;66647;52.124;5.416;2023-04-19T09:45:42;102869.81;;;19.10;26.96
76866;BME280;66647;52.124;5.416;2023-04-19T09:48:10;102867.56;;;19.04;28.00
76866;BME280;66647;52.124;5.416;2023-04-19T09:53:28;102875.91;;;19.33;26.33
76866;BME280;66647;52.124;5.416;2023-04-19T09:55:57;102872.69;;;18.85;27.28
76866;BME280;66647;52.124;5.416;2023-04-19T09:58:30;102864.31;;;18.93;28.08
76866;BME280;66647;52.124;5.416;2023-04-19T10:01:00;102874.13;;;19.29;27.29
76866;BME280;66647;52.124;5.416;2023-04-19T10:03:41;102862.69;;;19.81;25.96
76866;BME280;66647;52.124;5.416;2023-04-19T10:06:08;102891.88;;;19.74;26.00
76866;BME280;66647;52.124;5.416;2023-04-19T10:08:53;102860.75;;;19.22;26.32
76866;BME280;66647;52.124;5.416;2023-04-19T10:11:25;102860.94;;;19.46;27.16
76866;BME280;66647;52.124;5.416;2023-04-19T10:13:56;102858.09;;;19.55;27.45
76866;BME280;66647;52.124;5.416;2023-04-19T10:16:25;102849.97;;;19.71;25.83
76866;BME280;66647;52.124;5.416;2023-04-19T10:18:51;102851.75;;;20.29;27.36
76866;BME280;66647;52.124;5.416;2023-04-19T10:21:19;102857.09;;;20.34;25.39
76866;BME280;66647;52.124;5.416;2023-04-19T10:23:46;102853.31;;;19.64;26.17
76866;BME280;66647;52.124;5.416;2023-04-19T10:26:13;102849.97;;;19.71;27.28
76866;BME280;66647;52.124;5.416;2023-04-19T10:28:41;102846.94;;;20.18;27.23
76866;BME280;66647;52.124;5.416;2023-04-19T10:31:11;102848.69;;;20.43;25.70
76866;BME280;66647;52.124;5.416;2023-04-19T10:33:40;102847.88;;;20.22;25.93
76866;BME280;66647;52.124;5.416;2023-04-19T10:36:08;102841.97;;;20.56;26.01
76866;BME280;66647;52.124;5.416;2023-04-19T10:38:41;102833.19;;;20.78;25.83
76866;BME280;66647;52.124;5.416;2023-04-19T10:41:14;102839.66;;;20.58;24.47
76866;BME280;66647;52.124;5.416;2023-04-19T10:44:10;102839.56;;;20.67;26.33
76866;BME280;66647;52.124;5.416;2023-04-19T10:46:38;102840.81;;;20.45;23.86
76866;BME280;66647;52.124;5.416;2023-04-19T10:49:07;102833.81;;;20.39;24.61
76866;BME280;66647;52.124;5.416;2023-04-19T10:51:37;102843.38;;;20.29;23.63
76866;BME280;66647;52.124;5.416;2023-04-19T10:54:06;102835.72;;;20.59;24.67
76866;BME280;66647;52.124;5.416;2023-04-19T11:01:42;102831.31;;;20.70;25.45
76866;BME280;66647;52.124;5.416;2023-04-19T11:07:02;102824.91;;;20.45;24.42
76866;BME280;66647;52.124;5.416;2023-04-19T11:09:38;102817.03;;;20.27;24.07
76866;BME280;66647;52.124;5.416;2023-04-19T11:12:10;102822.16;;;20.37;24.13
76866;BME280;66647;52.124;5.416;2023-04-19T11:14:51;102808.53;;;20.80;25.36
76866;BME280;66647;52.124;5.416;2023-04-19T11:17:31;102787.03;;;21.05;24.67
76866;BME280;66647;52.124;5.416;2023-04-19T11:20:09;102793.13;;;21.48;22.37
76866;BME280;66647;52.124;5.416;2023-04-19T11:22:54;102798.31;;;21.21;22.29
76866;BME280;66647;52.124;5.416;2023-04-19T11:25:26;102785.53;;;20.71;23.44
76866;BME280;66647;52.124;5.416;2023-04-19T11:27:53;102785.06;;;20.94;23.05
76866;BME280;66647;52.124;5.416;2023-04-19T11:30:27;102802.13;;;20.56;23.26
76866;BME280;66647;52.124;5.416;2023-04-19T11:32:55;102787.25;;;20.52;23.05
76866;BME280;66647;52.124;5.416;2023-04-19T11:35:26;102778.44;;;20.62;22.77
76866;BME280;66647;52.124;5.416;2023-04-19T11:37:55;102772.06;;;20.86;22.01
76866;BME280;66647;52.124;5.416;2023-04-19T11:40:23;102756.03;;;20.70;22.67
76866;BME280;66647;52.124;5.416;2023-04-19T11:42:52;102760.53;;;20.38;22.75
76866;BME280;66647;52.124;5.416;2023-04-19T11:45:24;102768.84;;;20.14;22.93
76866;BME280;66647;52.124;5.416;2023-04-19T11:47:57;102758.84;;;19.80;22.93
76866;BME280;66647;52.124;5.416;2023-04-19T11:53:01;102760.81;;;19.38;21.99
76866;BME280;66647;52.124;5.416;2023-04-19T11:55:34;102755.53;;;18.95;22.26
76866;BME280;66647;52.124;5.416;2023-04-19T11:58:01;102745.91;;;18.92;24.45
76866;BME280;66647;52.124;5.416;2023-04-19T12:00:29;102742.31;;;18.92;24.56
76866;BME280;66647;52.124;5.416;2023-04-19T12:02:56;102749.13;;;19.03;23.28
76866;BME280;66647;52.124;5.416;2023-04-19T12:05:24;102756.53;;;19.20;23.77
76866;BME280;66647;52.124;5.416;2023-04-19T12:08:06;102753.41;;;18.71;22.86
76866;BME280;66647;52.124;5.416;2023-04-19T12:10:34;102748.25;;;18.43;23.28
76866;BME280;66647;52.124;5.416;2023-04-19T12:13:15;102745.69;;;18.30;23.55
76866;BME280;66647;52.124;5.416;2023-04-19T12:15:43;102740.75;;;18.44;22.69
76866;BME280;66647;52.124;5.416;2023-04-19T12:18:10;102746.34;;;18.27;22.72
76866;BME280;66647;52.124;5.416;2023-04-19T12:20:43;102742.66;;;18.52;23.43
76866;BME280;66647;52.124;5.416;2023-04-19T12:23:11;102737.56;;;18.54;23.36
76866;BME280;66647;52.124;5.416;2023-04-19T12:25:42;102741.38;;;18.50;22.96
76866;BME280;66647;52.124;5.416;2023-04-19T12:28:10;102743.47;;;18.53;23.42
76866;BME280;66647;52.124;5.416;2023-04-19T12:30:40;102725.47;;;18.67;22.87
76866;BME280;66647;52.124;5.416;2023-04-19T12:33:07;102723.00;;;18.66;23.58
76866;BME280;66647;52.124;5.416;2023-04-19T12:35:34;102719.28;;;18.62;22.78
76866;BME280;66647;52.124;5.416;2023-04-19T12:38:01;102723.69;;;18.54;22.30
76866;BME280;66647;52.124;5.416;2023-04-19T12:40:29;102717.84;;;18.47;23.33
76866;BME280;66647;52.124;5.416;2023-04-19T12:42:56;102717.56;;;18.40;24.21
76866;BME280;66647;52.124;5.416;2023-04-19T12:45:22;102726.84;;;18.44;24.44
76866;BME280;66647;52.124;5.416;2023-04-19T12:47:49;102717.19;;;18.50;24.64
76866;BME280;66647;52.124;5.416;2023-04-19T12:50:16;102708.56;;;18.43;24.01
76866;BME280;66647;52.124;5.416;2023-04-19T12:52:43;102701.41;;;18.33;23.94
76866;BME280;66647;52.124;5.416;2023-04-19T12:55:10;102703.31;;;18.50;23.84
76866;BME280;66647;52.124;5.416;2023-04-19T12:57:40;102702.28;;;18.55;24.09
76866;BME280;66647;52.124;5.416;2023-04-19T13:00:08;102702.16;;;18.51;25.05
76866;BME280;66647;52.124;5.416;2023-04-19T13:02:35;102704.72;;;18.56;25.28
76866;BME280;66647;52.124;5.416;2023-04-19T13:05:02;102695.56;;;18.64;25.08
76866;BME280;66647;52.124;5.416;2023-04-19T13:07:30;102699.09;;;18.35;25.46
76866;BME280;66647;52.124;5.416;2023-04-19T13:09:57;102687.94;;;18.15;26.01
76866;BME280;66647;52.124;5.416;2023-04-19T13:12:26;102688.75;;;18.15;24.66
76866;BME280;66647;52.124;5.416;2023-04-19T13:14:53;102671.81;;;17.99;24.48
76866;BME280;66647;52.124;5.416;2023-04-19T13:17:20;102673.56;;;18.12;24.82
76866;BME280;66647;52.124;5.416;2023-04-19T13:19:46;102672.63;;;18.00;25.15